Time;durP1;ratioP1;P1;durP2;ratioP2;P2;SDS_P1;SDS_P2;PMS_P1;PMS_P2;Temp;Humidity;BMP_temperature;BMP_pressure;BME280_temperature;BME280_humidity;BME280_pressure;Samples;Min_cycle;Max_cycle;Signal;HPM_P1;HPM_P2
2022/02/10 00:04:55;;;;;;;2.33;1.70;;;2.90;98.00;;;;;;5074642;28;20437;-68
2022/02/10 00:18:29;;;;;;;1.20;1.10;;;2.60;98.00;;;;;;5063373;28;20946;-67
2022/02/10 00:21:02;;;;;;;1.20;1.13;;;2.70;98.00;;;;;;5074191;28;20933;-67
2022/02/10 00:23:53;;;;;;;1.70;1.30;;;2.90;98.00;;;;;;5074272;28;20545;-67
2022/02/10 00:34:35;;;;;;;1.47;1.40;;;2.90;98.00;;;;;;5074476;28;20444;-67
2022/02/10 00:37:12;;;;;;;1.50;1.30;;;2.60;98.00;;;;;;5074010;28;20453;-67
2022/02/10 00:40:04;;;;;;;2.67;2.07;;;2.40;98.00;;;;;;5074126;28;20539;-67
2022/02/10 00:42:31;;;;;;;3.00;1.53;;;2.40;98.00;;;;;;5074087;28;20453;-67
2022/02/10 00:44:58;;;;;;;3.20;1.50;;;2.40;98.00;;;;;;5074233;28;20456;-67
2022/02/10 00:47:27;;;;;;;1.80;1.40;;;2.50;98.00;;;;;;5073868;28;20484;-67
2022/02/10 00:49:57;;;;;;;1.20;1.10;;;2.40;98.00;;;;;;5074026;28;20460;-67
2022/02/10 00:52:25;;;;;;;1.20;1.00;;;2.10;98.00;;;;;;5039753;28;20469;-67
2022/02/10 00:55:02;;;;;;;2.13;2.00;;;2.10;98.00;;;;;;5073644;28;20893;-67
2022/02/10 00:57:29;;;;;;;1.20;1.10;;;2.30;98.00;;;;;;5056315;28;20472;-67
2022/02/10 01:00:24;;;;;;;1.30;1.17;;;2.30;98.00;;;;;;5073635;28;20531;-67
2022/02/10 01:11:28;;;;;;;1.93;1.67;;;2.10;98.00;;;;;;5073561;28;20445;-67
2022/02/10 01:14:01;;;;;;;6.53;2.10;;;2.10;98.00;;;;;;5073126;28;20493;-67
2022/02/10 01:30:15;;;;;;;3.77;2.47;;;2.10;98.00;;;;;;5073040;28;20956;-67
2022/02/10 01:32:45;;;;;;;1.53;1.43;;;1.90;98.00;;;;;;5072891;28;20901;-67
2022/02/10 01:35:17;;;;;;;3.73;2.07;;;1.80;98.00;;;;;;5072792;28;20896;-67
2022/02/10 01:37:47;;;;;;;1.57;1.40;;;1.70;98.00;;;;;;5072887;28;20946;-67
2022/02/10 01:40:21;;;;;;;1.70;1.60;;;1.80;98.00;;;;;;5072809;28;20457;-67
2022/02/10 02:04:53;;;;;;;1.30;1.10;;;2.00;98.00;;;;;;5072605;28;20477;-67
2022/02/10 02:07:27;;;;;;;1.77;1.53;;;2.00;98.00;;;;;;5054282;28;20469;-67
2022/02/10 02:12:35;;;;;;;5.67;2.23;;;1.90;98.00;;;;;;5072097;28;20488;-67
2022/02/10 02:15:11;;;;;;;1.20;1.00;;;1.80;98.00;;;;;;5072221;28;20522;-67
2022/02/10 02:17:38;;;;;;;2.47;1.83;;;1.80;98.00;;;;;;5071202;28;20476;-67
2022/02/10 02:20:06;;;;;;;1.20;1.13;;;1.70;98.00;;;;;;5072089;28;20994;-67
2022/02/10 02:22:34;;;;;;;1.50;1.40;;;1.90;98.00;;;;;;5072005;28;20510;-67
2022/02/10 02:25:01;;;;;;;1.20;1.20;;;1.90;98.00;;;;;;5072125;28;20481;-67
2022/02/10 02:27:28;;;;;;;1.57;1.53;;;1.90;98.00;;;;;;5072417;28;20499;-67
2022/02/10 02:30:08;;;;;;;2.47;1.53;;;1.90;98.00;;;;;;5072836;28;21024;-67
2022/02/10 02:32:38;;;;;;;1.63;1.20;;;1.80;98.00;;;;;;5072798;28;20487;-67
2022/02/10 02:35:27;;;;;;;1.53;1.17;;;1.80;98.00;;;;;;5072291;28;20457;-67
2022/02/10 02:38:10;;;;;;;2.53;1.30;;;1.80;98.00;;;;;;5071546;28;20866;-67
2022/02/10 03:05:23;;;;;;;1.20;1.20;;;1.90;98.00;;;;;;5071448;28;20495;-67
2022/02/10 03:07:51;;;;;;;1.20;1.10;;;1.90;98.00;;;;;;5071150;28;20538;-67
2022/02/10 03:10:36;;;;;;;2.23;1.53;;;2.00;98.00;;;;;;5071258;28;20517;-67
2022/02/10 03:13:03;;;;;;;5.53;2.17;;;2.00;98.00;;;;;;5070842;28;20484;-67
2022/02/10 03:15:37;;;;;;;1.50;1.47;;;2.00;98.00;;;;;;5071394;28;20457;-67
2022/02/10 03:21:23;;;;;;;1.40;1.30;;;1.70;98.00;;;;;;5069022;28;20820;-67
2022/02/10 04:00:11;;;;;;;1.10;1.00;;;1.40;98.00;;;;;;5070984;28;20999;-67
2022/02/10 04:08:16;;;;;;;1.20;1.10;;;1.50;98.00;;;;;;5036533;28;20542;-67
2022/02/10 04:13:39;;;;;;;1.40;1.37;;;1.40;98.00;;;;;;5069470;28;20479;-67
2022/02/10 04:16:14;;;;;;;2.30;1.60;;;1.50;98.00;;;;;;5070602;28;21001;-67
2022/02/10 04:21:38;;;;;;;2.60;2.30;;;1.50;98.00;;;;;;5070522;28;20782;-67
2022/02/10 04:24:19;;;;;;;1.20;1.10;;;1.40;98.00;;;;;;5070419;28;20843;-67
2022/02/10 04:26:55;;;;;;;1.30;1.30;;;1.40;98.00;;;;;;5070411;28;20456;-66
2022/02/10 04:29:45;;;;;;;2.50;1.97;;;1.40;98.00;;;;;;5070368;28;20471;-66
2022/02/10 04:43:45;;;;;;;1.57;1.53;;;1.10;98.00;;;;;;5073791;28;20455;-66
2022/02/10 04:57:30;;;;;;;1.60;1.50;;;1.10;98.00;;;;;;5074047;28;20440;-67
2022/02/10 05:00:24;;;;;;;2.23;1.50;;;1.30;98.00;;;;;;5059111;28;20460;-66
2022/02/10 05:03:32;;;;;;;1.10;1.00;;;1.20;98.00;;;;;;5073596;28;20737;-67
2022/02/10 05:17:29;;;;;;;1.20;1.20;;;1.00;98.00;;;;;;5072016;28;20444;-66
2022/02/10 05:20:17;;;;;;;1.17;1.00;;;1.20;98.00;;;;;;5073275;28;20448;-67
2022/02/10 05:22:52;;;;;;;1.30;1.30;;;1.30;98.00;;;;;;5073084;28;20506;-67
2022/02/10 05:33:45;;;;;;;2.23;1.83;;;1.40;98.00;;;;;;5072974;28;20482;-66
2022/02/10 05:36:15;;;;;;;1.40;1.20;;;1.30;98.00;;;;;;5073112;28;20456;-67
2022/02/10 05:38:49;;;;;;;1.30;1.23;;;1.20;98.00;;;;;;5072863;28;20518;-67
2022/02/10 05:44:32;;;;;;;3.00;1.70;;;1.10;98.00;;;;;;5072343;28;20539;-67
2022/02/10 05:47:31;;;;;;;1.93;1.27;;;1.10;98.00;;;;;;5072582;28;20646;-67
2022/02/10 05:50:33;;;;;;;1.17;1.00;;;1.00;98.00;;;;;;5072577;28;20455;-67
2022/02/10 05:56:13;;;;;;;2.97;1.83;;;1.00;98.00;;;;;;5072596;28;20444;-67
2022/02/10 05:59:08;;;;;;;2.33;1.27;;;0.90;98.00;;;;;;5072450;28;20447;-67
2022/02/10 06:51:32;;;;;;;1.20;1.00;;;0.90;98.00;;;;;;5071638;28;20763;-67
2022/02/10 06:54:09;;;;;;;1.57;1.30;;;0.90;98.00;;;;;;5070818;28;21009;-67
2022/02/10 07:03:01;;;;;;;1.60;1.40;;;0.90;98.00;;;;;;5056423;28;20489;-67
2022/02/10 07:05:44;;;;;;;1.10;1.00;;;0.90;98.00;;;;;;5071230;28;20987;-66
2022/02/10 07:08:35;;;;;;;2.33;1.37;;;0.90;98.00;;;;;;5071151;28;20460;-67
2022/02/10 07:11:19;;;;;;;1.30;1.23;;;1.10;98.00;;;;;;5057296;28;20464;-66
2022/02/10 07:47:19;;;;;;;1.10;0.90;;;1.10;98.00;;;;;;5038173;28;20517;-66
2022/02/10 07:55:42;;;;;;;1.10;1.03;;;1.30;98.00;;;;;;5071035;28;20450;-66
2022/02/10 07:58:29;;;;;;;1.10;1.00;;;1.40;98.00;;;;;;5070801;28;20476;-66
2022/02/10 08:56:47;;;;;;;2.07;1.47;;;4.60;98.00;;;;;;5113183;28;21032;-65
2022/02/10 09:02:23;;;;;;;1.20;1.10;;;4.90;98.00;;;;;;5093188;28;20939;-66
2022/02/10 09:04:59;;;;;;;1.50;1.30;;;5.30;98.00;;;;;;5114288;28;20472;-65
2022/02/10 09:07:52;;;;;;;1.20;1.00;;;6.00;98.00;;;;;;5114099;28;20998;-65
2022/02/10 09:13:35;;;;;;;1.30;1.20;;;7.00;98.00;;;;;;5071148;28;20509;-67
2022/02/10 09:16:37;;;;;;;1.40;1.30;;;7.30;98.00;;;;;;5071277;28;21162;-64
2022/02/10 09:19:21;;;;;;;2.30;1.17;;;7.50;98.00;;;;;;5104801;28;20458;-66
2022/02/10 09:58:14;;;;;;;1.50;1.40;;;9.60;98.00;;;;;;5049741;28;20458;-66
2022/02/10 10:00:52;;;;;;;1.20;1.10;;;9.80;98.00;;;;;;5050103;28;20456;-67
2022/02/10 10:03:23;;;;;;;1.77;1.30;;;9.80;98.00;;;;;;5090436;28;20875;-66
2022/02/10 10:05:58;;;;;;;1.30;1.30;;;9.90;98.00;;;;;;5113117;28;20462;-67
2022/02/10 10:08:50;;;;;;;1.20;1.10;;;10.00;98.00;;;;;;5112906;28;20535;-67
2022/02/10 10:14:14;;;;;;;1.30;1.10;;;10.20;98.00;;;;;;5112441;28;20480;-67
2022/02/10 10:17:02;;;;;;;1.80;1.40;;;10.30;98.00;;;;;;5112751;28;20457;-67
2022/02/10 10:19:48;;;;;;;1.87;1.50;;;10.40;98.00;;;;;;5112568;28;20459;-67
2022/02/10 10:22:43;;;;;;;1.40;1.27;;;10.60;98.00;;;;;;5112511;28;20534;-67
2022/02/10 10:25:25;;;;;;;1.20;1.10;;;10.70;98.00;;;;;;5112649;28;20451;-67
2022/02/10 10:50:47;;;;;;;1.30;1.10;;;11.60;98.00;;;;;;5112617;28;20439;-67
2022/02/10 10:53:21;;;;;;;1.20;1.10;;;11.80;98.00;;;;;;5095147;28;20449;-67
2022/02/10 10:55:57;;;;;;;1.20;1.10;;;12.00;98.00;;;;;;5111940;28;20877;-66
2022/02/10 10:58:34;;;;;;;1.50;1.27;;;12.10;98.00;;;;;;5095118;28;20889;-65
2022/02/10 11:06:12;;;;;;;2.73;1.90;;;12.30;98.00;;;;;;5111850;28;20452;-64
2022/02/10 11:08:05;;;;;;;1.30;1.07;;;12.50;98.00;;;;;;5111564;28;20972;-65
2022/02/10 11:39:21;;;;;;;1.50;1.20;;;12.40;98.00;;;;;;5111645;28;20517;-65
2022/02/10 11:42:40;;;;;;;1.97;1.67;;;12.30;98.00;;;;;;5111177;28;20539;-65
2022/02/10 13:23:27;;;;;;;1.30;1.27;;;12.60;98.00;;;;;;5094420;28;20459;-65
2022/02/10 14:13:17;;;;;;;1.83;1.47;;;10.20;98.00;;;;;;5110530;28;20460;-66
2022/02/10 14:16:02;;;;;;;1.20;1.07;;;10.20;98.00;;;;;;5111299;28;20489;-69
2022/02/10 14:18:30;;;;;;;2.37;1.77;;;10.10;98.00;;;;;;5094793;28;20459;-64
2022/02/10 14:21:04;;;;;;;7.70;1.53;;;10.10;98.00;;;;;;5110893;28;20482;-64
2022/02/10 14:29:04;;;;;;;1.20;1.00;;;9.80;98.00;;;;;;5106347;28;20479;-64
2022/02/10 14:31:32;;;;;;;1.40;1.23;;;9.60;98.00;;;;;;5110550;28;20461;-65
2022/02/10 14:34:00;;;;;;;1.20;1.00;;;9.60;98.00;;;;;;5110663;28;20490;-65
2022/02/10 14:36:32;;;;;;;1.30;1.10;;;9.50;98.00;;;;;;5110222;28;20961;-64
2022/02/10 14:39:24;;;;;;;1.30;1.30;;;9.40;98.00;;;;;;5110306;28;20444;-65
2022/02/10 15:29:25;;;;;;;2.93;1.47;;;8.80;98.00;;;;;;5078201;28;20472;-65
2022/02/10 16:10:59;;;;;;;1.20;1.00;;;8.50;98.00;;;;;;5085413;28;20814;-66
2022/02/10 16:19:06;;;;;;;1.30;1.13;;;8.20;98.00;;;;;;5085002;28;20814;-65
2022/02/10 16:21:39;;;;;;;1.20;1.03;;;8.10;98.00;;;;;;5083491;28;20475;-64
2022/02/10 16:24:17;;;;;;;1.80;1.50;;;8.10;98.00;;;;;;5078398;28;20898;-65
2022/02/10 16:26:56;;;;;;;2.67;1.73;;;8.10;98.00;;;;;;5086319;28;20536;-64
2022/02/10 16:29:25;;;;;;;1.30;1.20;;;8.10;98.00;;;;;;5078670;28;20827;-64
2022/02/10 16:31:52;;;;;;;1.30;1.30;;;8.00;98.00;;;;;;5074575;28;20510;-65
2022/02/10 16:34:20;;;;;;;1.87;1.87;;;7.90;98.00;;;;;;5074764;28;20516;-65
2022/02/10 16:36:47;;;;;;;2.00;1.50;;;7.90;98.00;;;;;;5057097;28;20493;-65
2022/02/10 16:39:18;;;;;;;1.60;1.43;;;7.90;98.00;;;;;;5074633;28;20453;-64
2022/02/10 16:41:47;;;;;;;1.43;1.40;;;7.80;98.00;;;;;;5056939;28;20548;-65
2022/02/10 16:44:14;;;;;;;1.73;1.10;;;7.80;98.00;;;;;;5074597;28;20471;-64
2022/02/10 16:46:41;;;;;;;2.33;1.80;;;7.80;98.00;;;;;;5074748;28;20876;-65
2022/02/10 16:49:08;;;;;;;1.20;1.10;;;8.00;98.00;;;;;;5074681;28;20481;-65
2022/02/10 16:51:37;;;;;;;1.37;1.27;;;7.90;98.00;;;;;;5074595;28;20458;-65
2022/02/10 16:54:12;;;;;;;1.20;1.00;;;7.90;98.00;;;;;;5074394;28;20521;-65
2022/02/10 16:56:55;;;;;;;1.20;1.03;;;8.00;98.00;;;;;;5074478;28;20455;-64
2022/02/10 16:59:33;;;;;;;1.50;1.10;;;8.00;98.00;;;;;;5074230;28;20457;-65
2022/02/10 17:19:04;;;;;;;1.20;1.07;;;7.80;98.00;;;;;;5074241;28;20453;-65
2022/02/10 17:27:06;;;;;;;1.20;1.10;;;7.70;98.00;;;;;;5073762;28;20479;-65
2022/02/10 17:29:44;;;;;;;1.70;1.07;;;7.80;98.00;;;;;;5073840;28;20544;-64
2022/02/10 17:32:21;;;;;;;1.47;1.30;;;7.80;98.00;;;;;;5073913;28;20979;-65
2022/02/10 17:35:15;;;;;;;4.40;1.37;;;7.80;98.00;;;;;;5073568;28;20488;-66
2022/02/10 17:46:09;;;;;;;2.70;1.63;;;7.90;98.00;;;;;;5073572;28;20486;-66
2022/02/10 17:51:41;;;;;;;1.20;1.10;;;7.90;98.00;;;;;;5073545;28;20444;-64
2022/02/10 17:54:11;;;;;;;3.83;1.40;;;7.90;98.00;;;;;;5073311;28;20512;-65
2022/02/10 17:56:38;;;;;;;1.37;1.20;;;7.90;98.00;;;;;;5073424;28;20453;-65
2022/02/10 17:59:06;;;;;;;1.53;1.10;;;7.90;98.00;;;;;;5073149;28;21042;-65
2022/02/10 18:01:33;;;;;;;1.20;1.10;;;7.90;98.00;;;;;;5072912;28;20460;-64
2022/02/10 18:04:02;;;;;;;1.20;1.10;;;7.90;98.00;;;;;;5073374;28;20486;-64
2022/02/10 18:06:30;;;;;;;1.20;0.93;;;8.10;98.00;;;;;;5073145;28;20515;-64
2022/02/10 18:14:29;;;;;;;1.37;1.17;;;8.20;98.00;;;;;;5073006;28;20506;-65
2022/02/10 18:17:00;;;;;;;1.20;1.00;;;8.10;98.00;;;;;;5073003;28;20456;-64
2022/02/10 18:19:32;;;;;;;1.93;1.23;;;8.20;98.00;;;;;;5072966;28;20457;-65
2022/02/10 18:22:27;;;;;;;1.20;1.00;;;8.20;98.00;;;;;;5072954;28;20455;-64
2022/02/10 18:27:40;;;;;;;3.00;1.60;;;8.20;98.00;;;;;;5059199;28;20795;-64
2022/02/10 18:30:19;;;;;;;1.30;1.13;;;8.20;98.00;;;;;;5072791;28;20485;-65
2022/02/10 19:09:24;;;;;;;1.70;1.30;;;8.30;98.00;;;;;;5054053;28;20457;-64
2022/02/10 19:11:58;;;;;;;2.07;1.30;;;8.30;98.00;;;;;;5072077;28;20993;-65
2022/02/10 19:14:26;;;;;;;1.23;1.03;;;8.20;98.00;;;;;;5071745;28;20464;-65
2022/02/10 19:16:55;;;;;;;1.50;1.20;;;8.10;98.00;;;;;;5053707;28;20452;-65
2022/02/10 19:19:23;;;;;;;1.30;1.30;;;8.20;98.00;;;;;;5071680;28;20829;-64
2022/02/10 19:21:50;;;;;;;1.20;1.00;;;8.10;98.00;;;;;;5070821;28;20456;-65
2022/02/10 19:24:19;;;;;;;1.40;1.00;;;8.10;98.00;;;;;;5071937;28;20547;-65
2022/02/10 19:26:50;;;;;;;1.20;1.10;;;8.00;98.00;;;;;;5071405;28;20586;-65
2022/02/10 19:29:18;;;;;;;1.20;1.00;;;8.00;98.00;;;;;;5071239;28;20472;-65
2022/02/10 19:31:46;;;;;;;1.30;1.00;;;8.00;98.00;;;;;;5071361;28;20903;-65
2022/02/10 19:34:13;;;;;;;1.20;1.00;;;8.10;98.00;;;;;;5071599;28;20455;-64
2022/02/10 19:36:40;;;;;;;1.20;1.00;;;8.00;98.00;;;;;;5071258;28;20992;-66
2022/02/10 19:39:08;;;;;;;1.20;1.00;;;8.00;98.00;;;;;;5071480;28;20804;-65
2022/02/10 19:41:41;;;;;;;1.20;1.00;;;7.90;98.00;;;;;;5071689;28;20449;-65
2022/02/10 19:44:08;;;;;;;1.30;1.17;;;8.00;98.00;;;;;;5071629;28;20484;-65
2022/02/10 19:46:36;;;;;;;1.20;1.00;;;8.00;98.00;;;;;;5071423;28;20536;-65
2022/02/10 19:49:03;;;;;;;1.30;1.00;;;8.00;98.00;;;;;;5071850;28;20460;-67
2022/02/10 19:51:30;;;;;;;1.20;0.90;;;8.00;98.00;;;;;;5071614;28;20490;-66
2022/02/10 19:53:57;;;;;;;1.77;1.20;;;7.90;98.00;;;;;;5071245;28;20459;-66
2022/02/10 19:56:28;;;;;;;2.23;1.40;;;7.90;98.00;;;;;;5071358;28;20491;-66
2022/02/10 19:58:57;;;;;;;1.20;1.10;;;8.00;98.00;;;;;;5071453;28;20857;-65
2022/02/10 20:01:26;;;;;;;1.40;1.20;;;8.00;98.00;;;;;;5054767;28;20457;-65
2022/02/10 20:03:54;;;;;;;1.30;1.00;;;8.00;98.00;;;;;;5075415;28;20893;-66
2022/02/10 20:06:21;;;;;;;1.57;1.23;;;8.00;98.00;;;;;;5075541;28;20457;-66
2022/02/10 20:08:48;;;;;;;1.20;1.03;;;8.00;98.00;;;;;;5075589;28;20488;-65
2022/02/10 20:11:16;;;;;;;1.30;1.20;;;8.00;98.00;;;;;;5075475;28;20951;-64
2022/02/10 20:13:43;;;;;;;1.20;1.00;;;8.00;98.00;;;;;;5075682;28;20502;-66
2022/02/10 20:16:13;;;;;;;1.20;1.10;;;8.10;98.00;;;;;;5075241;28;20487;-64
2022/02/10 20:18:40;;;;;;;1.20;1.00;;;8.00;98.00;;;;;;5075767;28;20476;-64
2022/02/10 20:21:10;;;;;;;1.30;1.10;;;8.00;98.00;;;;;;5075561;28;20491;-65
2022/02/10 20:23:38;;;;;;;1.57;1.10;;;7.90;98.00;;;;;;5074990;28;20462;-65
2022/02/10 20:26:06;;;;;;;1.20;1.10;;;7.90;98.00;;;;;;5057127;28;21021;-65
2022/02/10 20:28:33;;;;;;;2.47;1.40;;;7.90;98.00;;;;;;5074998;28;20889;-64
2022/02/10 20:31:00;;;;;;;1.30;1.20;;;7.90;98.00;;;;;;5074990;28;20576;-65
2022/02/10 20:33:31;;;;;;;1.20;1.00;;;7.90;98.00;;;;;;5074714;28;20494;-65
2022/02/10 20:36:02;;;;;;;1.70;1.20;;;8.00;98.00;;;;;;5074829;28;20480;-65
2022/02/10 20:38:30;;;;;;;1.20;1.07;;;8.00;98.00;;;;;;5074773;28;20467;-65
2022/02/10 20:41:00;;;;;;;1.20;1.10;;;8.00;98.00;;;;;;5074703;28;20488;-65
2022/02/10 20:43:28;;;;;;;1.73;1.10;;;8.00;98.00;;;;;;5074704;28;20545;-65
2022/02/10 20:45:58;;;;;;;1.20;1.00;;;8.00;98.00;;;;;;5074722;28;20470;-65
2022/02/10 20:48:32;;;;;;;1.37;1.10;;;7.90;98.00;;;;;;5074188;28;20520;-65
2022/02/10 20:51:00;;;;;;;1.20;1.00;;;7.90;98.00;;;;;;5074654;28;20463;-65
2022/02/10 20:53:30;;;;;;;1.50;1.37;;;7.80;98.00;;;;;;5074157;28;20461;-65
2022/02/10 20:55:59;;;;;;;1.67;1.27;;;7.80;98.00;;;;;;5074480;28;20520;-64
2022/02/10 20:58:29;;;;;;;1.30;1.20;;;7.90;98.00;;;;;;5074317;28;20970;-66
2022/02/10 21:00:59;;;;;;;1.30;1.10;;;7.90;98.00;;;;;;5074432;28;20452;-64
2022/02/10 21:03:31;;;;;;;4.10;1.50;;;7.80;98.00;;;;;;5073716;28;20834;-64
2022/02/10 21:06:06;;;;;;;2.80;1.20;;;7.80;98.00;;;;;;5074423;28;21032;-65
2022/02/10 21:08:40;;;;;;;2.13;1.33;;;7.80;98.00;;;;;;5056531;28;20465;-65
2022/02/10 21:11:09;;;;;;;1.30;1.10;;;7.60;98.00;;;;;;5074402;28;20454;-65
2022/02/10 21:13:36;;;;;;;2.40;1.30;;;7.60;98.00;;;;;;5073436;28;20549;-66
2022/02/10 21:16:04;;;;;;;1.20;1.10;;;7.40;98.00;;;;;;5074132;28;20981;-64
2022/02/10 21:18:33;;;;;;;1.40;1.30;;;7.30;98.00;;;;;;5074258;28;20462;-66
2022/02/10 21:21:05;;;;;;;2.63;1.40;;;7.30;98.00;;;;;;5074072;28;20453;-66
2022/02/10 21:23:39;;;;;;;1.40;1.40;;;7.20;98.00;;;;;;5074128;28;20453;-64
2022/02/10 21:26:07;;;;;;;1.20;1.00;;;7.10;98.00;;;;;;5074092;28;20453;-65
2022/02/10 21:28:36;;;;;;;2.33;1.53;;;7.20;98.00;;;;;;5073920;28;20537;-65
2022/02/10 21:31:06;;;;;;;1.20;1.10;;;7.10;98.00;;;;;;5074108;28;20456;-64
2022/02/10 21:33:55;;;;;;;3.00;1.23;;;7.10;98.00;;;;;;5074022;28;20511;-65
2022/02/10 21:39:36;;;;;;;2.20;2.00;;;6.90;98.00;;;;;;5059570;28;20447;-65
2022/02/10 21:43:00;;;;;;;2.13;1.63;;;6.90;98.00;;;;;;5073940;28;20478;-65
2022/02/10 21:46:23;;;;;;;3.53;1.80;;;6.90;98.00;;;;;;5073241;28;20475;-65
2022/02/10 21:48:23;;;;;;;3.00;1.53;;;6.90;98.00;;;;;;5072742;28;20974;-65
2022/02/10 22:10:31;;;;;;;1.60;1.20;;;7.40;98.00;;;;;;5071163;28;20453;-65
2022/02/10 22:18:38;;;;;;;1.93;1.40;;;7.20;98.00;;;;;;5027452;28;20545;-65
2022/02/10 22:21:07;;;;;;;1.77;1.40;;;7.20;98.00;;;;;;5072282;28;20456;-64
2022/02/10 22:23:41;;;;;;;1.60;1.50;;;7.20;98.00;;;;;;5071991;28;20454;-64
2022/02/10 22:26:17;;;;;;;1.70;1.40;;;7.10;98.00;;;;;;5072004;28;20798;-65
2022/02/10 22:28:50;;;;;;;1.53;1.47;;;6.90;98.00;;;;;;5070109;28;20525;-65
2022/02/10 22:31:34;;;;;;;1.40;1.20;;;7.00;98.00;;;;;;5071861;28;20461;-66
2022/02/10 22:34:14;;;;;;;2.57;1.67;;;7.00;98.00;;;;;;5072097;28;20453;-65
2022/02/10 22:36:45;;;;;;;1.20;1.10;;;7.20;98.00;;;;;;5071852;28;20996;-64
2022/02/10 22:39:14;;;;;;;1.50;1.20;;;7.20;98.00;;;;;;5071968;28;20463;-65
2022/02/10 22:41:42;;;;;;;1.20;1.10;;;7.20;98.00;;;;;;5071871;28;20456;-65
2022/02/10 22:44:10;;;;;;;1.20;1.20;;;7.20;98.00;;;;;;5071682;28;20943;-66
2022/02/10 22:46:37;;;;;;;1.90;1.43;;;7.20;98.00;;;;;;5071493;28;20533;-65
2022/02/10 22:49:04;;;;;;;1.40;1.30;;;7.10;98.00;;;;;;5071731;28;20492;-64
2022/02/10 22:51:33;;;;;;;2.00;1.20;;;7.00;98.00;;;;;;5071534;28;20526;-64
2022/02/10 22:54:01;;;;;;;1.67;1.30;;;7.00;98.00;;;;;;5071419;28;20517;-64
2022/02/10 22:56:30;;;;;;;1.60;1.30;;;7.00;98.00;;;;;;5071445;28;20890;-64
2022/02/10 22:58:59;;;;;;;1.50;1.40;;;7.00;98.00;;;;;;5071410;28;21031;-66
2022/02/10 23:01:26;;;;;;;2.90;1.63;;;6.90;98.00;;;;;;5071468;28;20480;-65
2022/02/10 23:03:57;;;;;;;1.37;1.33;;;7.10;98.00;;;;;;5071443;28;21005;-64
2022/02/10 23:06:25;;;;;;;1.30;1.20;;;7.10;98.00;;;;;;5071470;28;20542;-65
2022/02/10 23:08:53;;;;;;;1.87;1.40;;;7.10;98.00;;;;;;5054011;28;20502;-65
2022/02/10 23:11:26;;;;;;;1.97;1.53;;;7.10;98.00;;;;;;5071485;28;20819;-65
2022/02/10 23:13:55;;;;;;;1.80;1.50;;;7.10;98.00;;;;;;5071348;28;20890;-65
2022/02/10 23:16:22;;;;;;;1.47;1.30;;;7.10;98.00;;;;;;5071094;28;20545;-64
2022/02/10 23:18:50;;;;;;;1.20;1.07;;;7.10;98.00;;;;;;5071264;28;20461;-65
2022/02/10 23:21:17;;;;;;;1.87;1.87;;;7.10;98.00;;;;;;5071117;28;20885;-66
2022/02/10 23:23:47;;;;;;;1.63;1.60;;;7.20;98.00;;;;;;5071147;28;20517;-65
2022/02/10 23:26:17;;;;;;;3.20;1.80;;;7.00;98.00;;;;;;5070913;28;20723;-65
2022/02/10 23:28:46;;;;;;;1.20;1.10;;;6.90;98.00;;;;;;5070875;28;20497;-64
2022/02/10 23:31:16;;;;;;;1.50;1.20;;;7.00;98.00;;;;;;5070891;28;20550;-65
2022/02/10 23:33:47;;;;;;;1.20;1.10;;;6.80;98.00;;;;;;5070943;28;20548;-65
2022/02/10 23:39:05;;;;;;;1.30;1.20;;;6.70;98.00;;;;;;5060908;28;21026;-65
2022/02/10 23:44:19;;;;;;;1.30;1.20;;;6.80;98.00;;;;;;5071598;28;20478;-65
2022/02/10 23:46:48;;;;;;;2.80;1.87;;;6.80;98.00;;;;;;5071634;28;20455;-64
2022/02/10 23:49:19;;;;;;;1.40;1.37;;;6.80;98.00;;;;;;5071564;28;20521;-64
2022/02/10 23:51:51;;;;;;;1.40;1.00;;;6.80;98.00;;;;;;5071537;28;20869;-65
2022/02/10 23:54:18;;;;;;;1.30;1.10;;;6.80;98.00;;;;;;5071483;28;20471;-64
2022/02/10 23:56:51;;;;;;;1.80;1.63;;;6.90;98.00;;;;;;5071465;28;20489;-64
2022/02/10 23:59:26;;;;;;;1.97;1.80;;;6.80;98.00;;;;;;5071360;28;20451;-64
